sensor_id;sensor_type;location;lat;lon;timestamp;pressure;altitude;pressure_sealevel;temperature;humidity
70015;BME280;57358;51.094;6.760;2023-07-31T00:01:00;100712.69;;;16.27;100.00
70015;BME280;57358;51.094;6.760;2023-07-31T00:03:26;100710.75;;;16.29;100.00
70015;BME280;57358;51.094;6.760;2023-07-31T00:05:53;100730.75;;;16.33;100.00
70015;BME280;57358;51.094;6.760;2023-07-31T00:08:19;100657.97;;;15.92;100.00
70015;BME280;57358;51.094;6.760;2023-07-31T00:10:46;100707.97;;;16.19;100.00
70015;BME280;57358;51.094;6.760;2023-07-31T00:13:12;100688.34;;;16.10;100.00
70015;BME280;57358;51.094;6.760;2023-07-31T00:15:39;100728.34;;;16.30;100.00
70015;BME280;57358;51.094;6.760;2023-07-31T00:18:05;100717.25;;;16.25;100.00
70015;BME280;57358;51.094;6.760;2023-07-31T00:20:31;100704.38;;;16.20;100.00
70015;BME280;57358;51.094;6.760;2023-07-31T00:22:58;100711.38;;;16.32;100.00
70015;BME280;57358;51.094;6.760;2023-07-31T00:25:24;100714.03;;;16.32;100.00
70015;BME280;57358;51.094;6.760;2023-07-31T00:27:51;100682.69;;;16.15;100.00
70015;BME280;57358;51.094;6.760;2023-07-31T00:30:17;100719.06;;;16.35;100.00
70015;BME280;57358;51.094;6.760;2023-07-31T00:32:43;100706.56;;;16.38;100.00
70015;BME280;57358;51.094;6.760;2023-07-31T00:35:10;100704.88;;;16.37;100.00
70015;BME280;57358;51.094;6.760;2023-07-31T00:37:36;100707.53;;;16.37;100.00
70015;BME280;57358;51.094;6.760;2023-07-31T00:40:03;100696.69;;;16.40;100.00
70015;BME280;57358;51.094;6.760;2023-07-31T00:42:30;100693.81;;;16.43;100.00
70015;BME280;57358;51.094;6.760;2023-07-31T00:44:56;100680.78;;;16.40;100.00
70015;BME280;57358;51.094;6.760;2023-07-31T00:47:23;100689.25;;;16.45;100.00
70015;BME280;57358;51.094;6.760;2023-07-31T00:49:49;100682.25;;;16.32;100.00
70015;BME280;57358;51.094;6.760;2023-07-31T00:52:16;100617.44;;;16.03;100.00
70015;BME280;57358;51.094;6.760;2023-07-31T00:54:43;100656.72;;;16.31;100.00
70015;BME280;57358;51.094;6.760;2023-07-31T00:57:09;100679.75;;;16.42;100.00
70015;BME280;57358;51.094;6.760;2023-07-31T00:59:36;100673.94;;;16.37;100.00
70015;BME280;57358;51.094;6.760;2023-07-31T01:02:03;100670.09;;;16.41;100.00
70015;BME280;57358;51.094;6.760;2023-07-31T01:04:29;100652.75;;;16.37;100.00
70015;BME280;57358;51.094;6.760;2023-07-31T01:07:00;100641.22;;;16.38;100.00
70015;BME280;57358;51.094;6.760;2023-07-31T01:09:42;100633.34;;;16.25;100.00
70015;BME280;57358;51.094;6.760;2023-07-31T01:12:14;100654.06;;;16.31;100.00
70015;BME280;57358;51.094;6.760;2023-07-31T01:14:50;100633.34;;;16.14;100.00
70015;BME280;57358;51.094;6.760;2023-07-31T01:17:17;100614.06;;;16.01;100.00
70015;BME280;57358;51.094;6.760;2023-07-31T01:19:44;100641.44;;;16.24;100.00
70015;BME280;57358;51.094;6.760;2023-07-31T01:22:30;100640.81;;;16.31;100.00
70015;BME280;57358;51.094;6.760;2023-07-31T01:28:11;100632.41;;;16.26;100.00
70015;BME280;57358;51.094;6.760;2023-07-31T01:30:44;100591.66;;;15.93;100.00
70015;BME280;57358;51.094;6.760;2023-07-31T01:33:14;100614.31;;;16.09;100.00
70015;BME280;57358;51.094;6.760;2023-07-31T01:35:43;100632.03;;;16.31;100.00
70015;BME280;57358;51.094;6.760;2023-07-31T01:38:10;100621.69;;;16.28;100.00
70015;BME280;57358;51.094;6.760;2023-07-31T01:40:41;100549.94;;;15.86;100.00
70015;BME280;57358;51.094;6.760;2023-07-31T01:43:08;100551.97;;;15.82;100.00
70015;BME280;57358;51.094;6.760;2023-07-31T01:45:35;100563.41;;;16.05;100.00
70015;BME280;57358;51.094;6.760;2023-07-31T01:48:01;100555.09;;;15.99;100.00
70015;BME280;57358;51.094;6.760;2023-07-31T01:50:27;100605.44;;;16.32;100.00
70015;BME280;57358;51.094;6.760;2023-07-31T01:52:54;100610.25;;;16.27;100.00
70015;BME280;57358;51.094;6.760;2023-07-31T01:55:20;100612.88;;;16.27;100.00
70015;BME280;57358;51.094;6.760;2023-07-31T01:57:47;100578.72;;;16.02;100.00
70015;BME280;57358;51.094;6.760;2023-07-31T02:00:14;100574.84;;;15.94;100.00
70015;BME280;57358;51.094;6.760;2023-07-31T02:02:41;100622.03;;;16.23;100.00
70015;BME280;57358;51.094;6.760;2023-07-31T02:05:07;100627.47;;;16.22;100.00
70015;BME280;57358;51.094;6.760;2023-07-31T02:07:34;100631.78;;;16.23;100.00
70015;BME280;57358;51.094;6.760;2023-07-31T02:10:00;100615.28;;;16.08;100.00
70015;BME280;57358;51.094;6.760;2023-07-31T02:12:27;100614.09;;;16.23;100.00
70015;BME280;57358;51.094;6.760;2023-07-31T02:14:56;100549.69;;;15.78;100.00
70015;BME280;57358;51.094;6.760;2023-07-31T02:17:23;100622.75;;;16.25;100.00
70015;BME280;57358;51.094;6.760;2023-07-31T02:19:49;100559.44;;;15.88;100.00
70015;BME280;57358;51.094;6.760;2023-07-31T02:22:15;100630.72;;;16.25;100.00
70015;BME280;57358;51.094;6.760;2023-07-31T02:24:42;100579.41;;;15.92;100.00
70015;BME280;57358;51.094;6.760;2023-07-31T02:27:08;100630.13;;;16.33;100.00
70015;BME280;57358;51.094;6.760;2023-07-31T02:29:34;100643.34;;;16.33;100.00
70015;BME280;57358;51.094;6.760;2023-07-31T02:32:01;100586.66;;;16.02;100.00
70015;BME280;57358;51.094;6.760;2023-07-31T02:34:28;100629.97;;;16.23;100.00
70015;BME280;57358;51.094;6.760;2023-07-31T02:36:54;100646.84;;;16.33;100.00
70015;BME280;57358;51.094;6.760;2023-07-31T02:39:20;100640.84;;;16.43;100.00
70015;BME280;57358;51.094;6.760;2023-07-31T02:41:47;100526.09;;;15.74;100.00
70015;BME280;57358;51.094;6.760;2023-07-31T02:44:13;100629.63;;;16.39;100.00
70015;BME280;57358;51.094;6.760;2023-07-31T02:46:40;100602.81;;;16.32;100.00
70015;BME280;57358;51.094;6.760;2023-07-31T02:49:09;100568.13;;;16.13;100.00
70015;BME280;57358;51.094;6.760;2023-07-31T02:51:38;100565.22;;;16.05;100.00
70015;BME280;57358;51.094;6.760;2023-07-31T02:54:04;100564.38;;;16.15;100.00
70015;BME280;57358;51.094;6.760;2023-07-31T02:56:31;100590.88;;;16.27;100.00
70015;BME280;57358;51.094;6.760;2023-07-31T02:58:57;100568.63;;;16.18;100.00
70015;BME280;57358;51.094;6.760;2023-07-31T03:01:23;100600.28;;;16.42;100.00
70015;BME280;57358;51.094;6.760;2023-07-31T03:03:50;100601.84;;;16.45;100.00
70015;BME280;57358;51.094;6.760;2023-07-31T03:06:17;100607.63;;;16.50;100.00
70015;BME280;57358;51.094;6.760;2023-07-31T03:08:43;100570.53;;;16.27;100.00
70015;BME280;57358;51.094;6.760;2023-07-31T03:11:10;100565.94;;;16.29;100.00
70015;BME280;57358;51.094;6.760;2023-07-31T03:13:36;100603.06;;;16.52;100.00
70015;BME280;57358;51.094;6.760;2023-07-31T03:16:03;100573.19;;;16.50;100.00
70015;BME280;57358;51.094;6.760;2023-07-31T03:18:29;100566.06;;;16.39;100.00
70015;BME280;57358;51.094;6.760;2023-07-31T03:20:55;100577.28;;;16.43;100.00
70015;BME280;57358;51.094;6.760;2023-07-31T03:23:22;100593.28;;;16.52;100.00
70015;BME280;57358;51.094;6.760;2023-07-31T03:25:58;100590.53;;;16.54;100.00
70015;BME280;57358;51.094;6.760;2023-07-31T03:28:25;100562.97;;;16.34;100.00
70015;BME280;57358;51.094;6.760;2023-07-31T03:30:53;100584.63;;;16.39;100.00
70015;BME280;57358;51.094;6.760;2023-07-31T03:33:19;100588.09;;;16.40;100.00
70015;BME280;57358;51.094;6.760;2023-07-31T03:35:46;100557.31;;;16.16;100.00
70015;BME280;57358;51.094;6.760;2023-07-31T03:38:12;100621.72;;;16.50;100.00
70015;BME280;57358;51.094;6.760;2023-07-31T03:40:39;100599.66;;;16.27;100.00
70015;BME280;57358;51.094;6.760;2023-07-31T03:43:06;100594.72;;;16.23;100.00
70015;BME280;57358;51.094;6.760;2023-07-31T03:45:32;100621.69;;;16.39;100.00
70015;BME280;57358;51.094;6.760;2023-07-31T03:47:58;100626.16;;;16.39;100.00
70015;BME280;57358;51.094;6.760;2023-07-31T03:50:25;100619.88;;;16.28;100.00
70015;BME280;57358;51.094;6.760;2023-07-31T03:52:52;100631.81;;;16.34;100.00
70015;BME280;57358;51.094;6.760;2023-07-31T03:55:18;100575.09;;;16.03;100.00
70015;BME280;57358;51.094;6.760;2023-07-31T03:57:45;100605.81;;;16.28;100.00
70015;BME280;57358;51.094;6.760;2023-07-31T04:00:11;100596.28;;;16.25;100.00
70015;BME280;57358;51.094;6.760;2023-07-31T04:02:38;100587.75;;;16.22;100.00
70015;BME280;57358;51.094;6.760;2023-07-31T04:05:04;100550.53;;;16.01;100.00
70015;BME280;57358;51.094;6.760;2023-07-31T04:07:31;100612.19;;;16.37;100.00
70015;BME280;57358;51.094;6.760;2023-07-31T04:09:57;100565.47;;;16.13;100.00
70015;BME280;57358;51.094;6.760;2023-07-31T04:12:24;100569.34;;;16.20;100.00
70015;BME280;57358;51.094;6.760;2023-07-31T04:14:50;100597.03;;;16.39;100.00
70015;BME280;57358;51.094;6.760;2023-07-31T04:17:20;100582.81;;;16.28;100.00
70015;BME280;57358;51.094;6.760;2023-07-31T04:19:46;100573.66;;;16.32;100.00
70015;BME280;57358;51.094;6.760;2023-07-31T04:22:12;100594.00;;;16.43;100.00
70015;BME280;57358;51.094;6.760;2023-07-31T04:24:39;100593.41;;;16.40;100.00
70015;BME280;57358;51.094;6.760;2023-07-31T04:27:07;100591.25;;;16.45;100.00
70015;BME280;57358;51.094;6.760;2023-07-31T04:29:34;100545.84;;;16.15;100.00
70015;BME280;57358;51.094;6.760;2023-07-31T04:32:00;100576.69;;;16.28;100.00
70015;BME280;57358;51.094;6.760;2023-07-31T04:34:27;100593.41;;;16.40;100.00
70015;BME280;57358;51.094;6.760;2023-07-31T04:36:53;100532.13;;;15.99;100.00
70015;BME280;57358;51.094;6.760;2023-07-31T04:39:22;100586.31;;;16.40;100.00
70015;BME280;57358;51.094;6.760;2023-07-31T04:41:48;100594.72;;;16.45;100.00
70015;BME280;57358;51.094;6.760;2023-07-31T04:44:15;100591.00;;;16.48;100.00
70015;BME280;57358;51.094;6.760;2023-07-31T04:46:41;100588.38;;;16.48;100.00
70015;BME280;57358;51.094;6.760;2023-07-31T04:49:08;100597.38;;;16.57;100.00
70015;BME280;57358;51.094;6.760;2023-07-31T04:51:35;100591.47;;;16.64;100.00
70015;BME280;57358;51.094;6.760;2023-07-31T04:54:01;100555.81;;;16.57;100.00
70015;BME280;57358;51.094;6.760;2023-07-31T04:56:27;100573.75;;;16.76;100.00
70015;BME280;57358;51.094;6.760;2023-07-31T04:58:54;100504.53;;;16.47;100.00
70015;BME280;57358;51.094;6.760;2023-07-31T05:01:21;100496.81;;;16.55;100.00
70015;BME280;57358;51.094;6.760;2023-07-31T05:03:47;100543.03;;;16.96;100.00
70015;BME280;57358;51.094;6.760;2023-07-31T05:06:14;100524.97;;;16.90;100.00
70015;BME280;57358;51.094;6.760;2023-07-31T05:08:41;100489.41;;;16.92;100.00
70015;BME280;57358;51.094;6.760;2023-07-31T05:11:07;100515.59;;;17.18;100.00
70015;BME280;57358;51.094;6.760;2023-07-31T05:13:34;100463.22;;;16.99;100.00
70015;BME280;57358;51.094;6.760;2023-07-31T05:16:00;100487.44;;;17.27;100.00
70015;BME280;57358;51.094;6.760;2023-07-31T05:18:29;100490.09;;;17.27;100.00
70015;BME280;57358;51.094;6.760;2023-07-31T05:20:55;100389.44;;;16.83;100.00
70015;BME280;57358;51.094;6.760;2023-07-31T05:23:21;100404.06;;;16.99;100.00
70015;BME280;57358;51.094;6.760;2023-07-31T05:25:48;100455.81;;;17.35;100.00
70015;BME280;57358;51.094;6.760;2023-07-31T05:28:14;100450.09;;;17.40;100.00
70015;BME280;57358;51.094;6.760;2023-07-31T05:30:41;100422.22;;;17.45;100.00
70015;BME280;57358;51.094;6.760;2023-07-31T05:33:07;100415.31;;;17.54;100.00
70015;BME280;57358;51.094;6.760;2023-07-31T05:35:34;100413.59;;;17.53;100.00
70015;BME280;57358;51.094;6.760;2023-07-31T05:38:00;100404.09;;;17.50;100.00
70015;BME280;57358;51.094;6.760;2023-07-31T05:40:26;100367.44;;;17.34;100.00
70015;BME280;57358;51.094;6.760;2023-07-31T05:42:53;100379.34;;;17.40;100.00
70015;BME280;57358;51.094;6.760;2023-07-31T05:45:19;100382.00;;;17.40;100.00
70015;BME280;57358;51.094;6.760;2023-07-31T05:47:46;100374.16;;;17.39;100.00
70015;BME280;57358;51.094;6.760;2023-07-31T05:50:12;100370.94;;;17.35;100.00
70015;BME280;57358;51.094;6.760;2023-07-31T05:52:40;100374.81;;;17.31;100.00
70015;BME280;57358;51.094;6.760;2023-07-31T05:55:07;100354.47;;;17.10;100.00
70015;BME280;57358;51.094;6.760;2023-07-31T05:57:34;100371.69;;;17.16;100.00
70015;BME280;57358;51.094;6.760;2023-07-31T06:00:01;100387.97;;;17.11;100.00
70015;BME280;57358;51.094;6.760;2023-07-31T06:02:28;100408.09;;;17.14;100.00
70015;BME280;57358;51.094;6.760;2023-07-31T06:04:54;100387.78;;;16.82;100.00
70015;BME280;57358;51.094;6.760;2023-07-31T06:07:21;100434.91;;;17.00;100.00
70015;BME280;57358;51.094;6.760;2023-07-31T06:09:47;100465.28;;;16.95;100.00
70015;BME280;57358;51.094;6.760;2023-07-31T06:12:13;100456.69;;;16.82;100.00
70015;BME280;57358;51.094;6.760;2023-07-31T06:14:40;100435.88;;;16.66;100.00
70015;BME280;57358;51.094;6.760;2023-07-31T06:17:06;100482.41;;;16.91;100.00
70015;BME280;57358;51.094;6.760;2023-07-31T06:19:33;100491.59;;;16.87;100.00
70015;BME280;57358;51.094;6.760;2023-07-31T06:21:59;100465.72;;;16.68;100.00
70015;BME280;57358;51.094;6.760;2023-07-31T06:24:26;100493.28;;;16.88;100.00
70015;BME280;57358;51.094;6.760;2023-07-31T06:26:53;100459.09;;;16.74;100.00
70015;BME280;57358;51.094;6.760;2023-07-31T06:29:19;100490.56;;;17.00;100.00
70015;BME280;57358;51.094;6.760;2023-07-31T06:31:45;100494.41;;;17.07;100.00
70015;BME280;57358;51.094;6.760;2023-07-31T06:34:12;100475.00;;;17.06;100.00
70015;BME280;57358;51.094;6.760;2023-07-31T06:36:38;100481.94;;;17.19;100.00
70015;BME280;57358;51.094;6.760;2023-07-31T06:39:05;100474.69;;;17.21;100.00
70015;BME280;57358;51.094;6.760;2023-07-31T06:41:32;100476.78;;;17.38;100.00
70015;BME280;57358;51.094;6.760;2023-07-31T06:43:58;100429.88;;;17.18;100.00
70015;BME280;57358;51.094;6.760;2023-07-31T06:46:24;100446.63;;;17.39;100.00
70015;BME280;57358;51.094;6.760;2023-07-31T06:48:51;100464.91;;;17.63;100.00
70015;BME280;57358;51.094;6.760;2023-07-31T06:51:17;100414.13;;;17.47;100.00
70015;BME280;57358;51.094;6.760;2023-07-31T06:53:44;100356.38;;;17.29;100.00
70015;BME280;57358;51.094;6.760;2023-07-31T06:56:11;100412.84;;;17.72;100.00
70015;BME280;57358;51.094;6.760;2023-07-31T06:58:38;100376.75;;;17.60;100.00
70015;BME280;57358;51.094;6.760;2023-07-31T07:01:04;100292.06;;;17.06;100.00
70015;BME280;57358;51.094;6.760;2023-07-31T07:03:32;100414.19;;;17.87;100.00
70015;BME280;57358;51.094;6.760;2023-07-31T07:05:58;100382.09;;;17.69;100.00
70015;BME280;57358;51.094;6.760;2023-07-31T07:08:25;100359.47;;;17.65;100.00
70015;BME280;57358;51.094;6.760;2023-07-31T07:10:53;100367.31;;;17.67;100.00
70015;BME280;57358;51.094;6.760;2023-07-31T07:13:21;100360.84;;;17.60;100.00
70015;BME280;57358;51.094;6.760;2023-07-31T07:15:48;100403.66;;;17.76;100.00
70015;BME280;57358;51.094;6.760;2023-07-31T07:18:15;100399.03;;;17.68;100.00
70015;BME280;57358;51.094;6.760;2023-07-31T07:20:52;100361.03;;;17.37;100.00
70015;BME280;57358;51.094;6.760;2023-07-31T07:23:19;100419.81;;;17.63;100.00
70015;BME280;57358;51.094;6.760;2023-07-31T07:25:47;100376.94;;;17.37;100.00
70015;BME280;57358;51.094;6.760;2023-07-31T07:28:13;100422.97;;;17.57;100.00
70015;BME280;57358;51.094;6.760;2023-07-31T07:30:40;100432.41;;;17.40;100.00
70015;BME280;57358;51.094;6.760;2023-07-31T07:33:07;100366.50;;;17.14;100.00
70015;BME280;57358;51.094;6.760;2023-07-31T07:35:34;100447.28;;;17.52;100.00
70015;BME280;57358;51.094;6.760;2023-07-31T07:38:04;100456.41;;;17.39;100.00
70015;BME280;57358;51.094;6.760;2023-07-31T07:40:30;100473.16;;;17.39;100.00
70015;BME280;57358;51.094;6.760;2023-07-31T07:42:56;100175.56;;;15.58;100.00
70015;BME280;57358;51.094;6.760;2023-07-31T07:45:23;100476.00;;;17.47;100.00
70015;BME280;57358;51.094;6.760;2023-07-31T07:47:49;100333.16;;;16.59;100.00
70015;BME280;57358;51.094;6.760;2023-07-31T07:50:16;100471.03;;;17.54;100.00
70015;BME280;57358;51.094;6.760;2023-07-31T07:52:42;100451.09;;;17.39;100.00
70015;BME280;57358;51.094;6.760;2023-07-31T07:55:09;100451.34;;;17.57;100.00
70015;BME280;57358;51.094;6.760;2023-07-31T07:57:35;100452.28;;;17.55;100.00
70015;BME280;57358;51.094;6.760;2023-07-31T08:00:02;100460.91;;;17.69;100.00
70015;BME280;57358;51.094;6.760;2023-07-31T08:02:29;100467.56;;;17.63;100.00
70015;BME280;57358;51.094;6.760;2023-07-31T08:04:55;100421.59;;;17.32;100.00
70015;BME280;57358;51.094;6.760;2023-07-31T08:07:21;100453.94;;;17.47;100.00
70015;BME280;57358;51.094;6.760;2023-07-31T08:09:48;100393.97;;;17.13;100.00
70015;BME280;57358;51.094;6.760;2023-07-31T08:12:14;100377.69;;;17.18;100.00
70015;BME280;57358;51.094;6.760;2023-07-31T08:14:41;100373.41;;;17.27;100.00
70015;BME280;57358;51.094;6.760;2023-07-31T08:17:07;100434.19;;;17.91;100.00
70015;BME280;57358;51.094;6.760;2023-07-31T08:19:34;100387.34;;;17.81;100.00
70015;BME280;57358;51.094;6.760;2023-07-31T08:22:00;100387.69;;;17.97;100.00
70015;BME280;57358;51.094;6.760;2023-07-31T08:24:27;100372.59;;;17.98;100.00
70015;BME280;57358;51.094;6.760;2023-07-31T08:26:53;100354.44;;;18.03;100.00
70015;BME280;57358;51.094;6.760;2023-07-31T08:29:20;100364.25;;;18.02;100.00
70015;BME280;57358;51.094;6.760;2023-07-31T08:31:46;100322.59;;;17.72;100.00
70015;BME280;57358;51.094;6.760;2023-07-31T08:34:12;100346.75;;;18.00;100.00
70015;BME280;57358;51.094;6.760;2023-07-31T08:36:39;100345.13;;;18.18;100.00
70015;BME280;57358;51.094;6.760;2023-07-31T08:39:06;100350.03;;;18.32;100.00
70015;BME280;57358;51.094;6.760;2023-07-31T08:41:37;100343.72;;;18.33;100.00
70015;BME280;57358;51.094;6.760;2023-07-31T08:44:04;100328.91;;;18.41;100.00
70015;BME280;57358;51.094;6.760;2023-07-31T08:46:31;100230.84;;;17.79;100.00
70015;BME280;57358;51.094;6.760;2023-07-31T08:48:59;100255.63;;;17.99;100.00
70015;BME280;57358;51.094;6.760;2023-07-31T08:51:26;100323.84;;;18.38;100.00
70015;BME280;57358;51.094;6.760;2023-07-31T08:53:53;100283.88;;;18.20;100.00
70015;BME280;57358;51.094;6.760;2023-07-31T08:56:20;100249.50;;;18.18;100.00
70015;BME280;57358;51.094;6.760;2023-07-31T08:58:47;100291.00;;;18.48;100.00
70015;BME280;57358;51.094;6.760;2023-07-31T09:01:14;100265.13;;;18.21;100.00
70015;BME280;57358;51.094;6.760;2023-07-31T09:03:41;100311.00;;;18.23;100.00
70015;BME280;57358;51.094;6.760;2023-07-31T09:06:11;100338.25;;;18.25;100.00
70015;BME280;57358;51.094;6.760;2023-07-31T09:08:41;100352.09;;;18.19;100.00
70015;BME280;57358;51.094;6.760;2023-07-31T09:11:08;100326.06;;;17.93;100.00
70015;BME280;57358;51.094;6.760;2023-07-31T09:13:35;100320.69;;;17.74;100.00
70015;BME280;57358;51.094;6.760;2023-07-31T09:16:01;100302.72;;;17.47;100.00
70015;BME280;57358;51.094;6.760;2023-07-31T09:18:28;100314.16;;;17.47;100.00
70015;BME280;57358;51.094;6.760;2023-07-31T09:21:05;100385.47;;;18.02;100.00
70015;BME280;57358;51.094;6.760;2023-07-31T09:23:45;100360.88;;;18.10;100.00
70015;BME280;57358;51.094;6.760;2023-07-31T09:26:37;100352.94;;;18.20;100.00
70015;BME280;57358;51.094;6.760;2023-07-31T09:29:05;100335.75;;;18.43;100.00
70015;BME280;57358;51.094;6.760;2023-07-31T09:31:43;100316.84;;;18.56;100.00
70015;BME280;57358;51.094;6.760;2023-07-31T09:34:11;100314.88;;;18.87;100.00
70015;BME280;57358;51.094;6.760;2023-07-31T09:36:45;100293.34;;;18.90;100.00
70015;BME280;57358;51.094;6.760;2023-07-31T09:39:13;100252.22;;;18.85;100.00
70015;BME280;57358;51.094;6.760;2023-07-31T09:41:54;100255.78;;;19.03;100.00
70015;BME280;57358;51.094;6.760;2023-07-31T09:44:20;100252.28;;;19.03;100.00
70015;BME280;57358;51.094;6.760;2023-07-31T09:46:47;100251.84;;;19.07;100.00
70015;BME280;57358;51.094;6.760;2023-07-31T09:49:14;100194.34;;;18.59;100.00
70015;BME280;57358;51.094;6.760;2023-07-31T09:51:42;100273.13;;;19.07;100.00
70015;BME280;57358;51.094;6.760;2023-07-31T09:54:10;100170.81;;;18.64;100.00
70015;BME280;57358;51.094;6.760;2023-07-31T09:56:45;100273.88;;;19.27;100.00
70015;BME280;57358;51.094;6.760;2023-07-31T09:59:17;100177.28;;;18.99;100.00
70015;BME280;57358;51.094;6.760;2023-07-31T10:01:49;100182.59;;;19.27;100.00
70015;BME280;57358;51.094;6.760;2023-07-31T10:04:17;100173.56;;;19.10;100.00
70015;BME280;57358;51.094;6.760;2023-07-31T10:06:49;100251.47;;;19.58;100.00
70015;BME280;57358;51.094;6.760;2023-07-31T10:09:18;100193.47;;;19.33;100.00
70015;BME280;57358;51.094;6.760;2023-07-31T10:11:55;100258.66;;;19.47;100.00
70015;BME280;57358;51.094;6.760;2023-07-31T10:14:24;100231.31;;;19.27;100.00
70015;BME280;57358;51.094;6.760;2023-07-31T10:16:52;100269.50;;;19.36;100.00
70015;BME280;57358;51.094;6.760;2023-07-31T10:19:20;100267.97;;;19.33;100.00
70015;BME280;57358;51.094;6.760;2023-07-31T10:21:48;100271.31;;;19.63;100.00
70015;BME280;57358;51.094;6.760;2023-07-31T10:24:15;100254.88;;;19.50;100.00
70015;BME280;57358;51.094;6.760;2023-07-31T10:26:45;100249.31;;;19.71;100.00
70015;BME280;57358;51.094;6.760;2023-07-31T10:29:12;100230.78;;;19.69;100.00
70015;BME280;57358;51.094;6.760;2023-07-31T10:31:40;100228.09;;;19.97;100.00
70015;BME280;57358;51.094;6.760;2023-07-31T10:34:07;100228.16;;;20.23;100.00
70015;BME280;57358;51.094;6.760;2023-07-31T10:36:33;100121.03;;;19.93;99.89
70015;BME280;57358;51.094;6.760;2023-07-31T10:39:03;100162.94;;;20.09;99.06
70015;BME280;57358;51.094;6.760;2023-07-31T10:41:30;100197.34;;;20.03;100.00
70015;BME280;57358;51.094;6.760;2023-07-31T10:43:59;100120.00;;;20.12;97.25
70015;BME280;57358;51.094;6.760;2023-07-31T10:46:27;100136.00;;;20.39;95.27
70015;BME280;57358;51.094;6.760;2023-07-31T10:48:59;100098.28;;;20.25;93.19
70015;BME280;57358;51.094;6.760;2023-07-31T10:51:33;100132.97;;;20.33;96.00
70015;BME280;57358;51.094;6.760;2023-07-31T10:54:16;100154.38;;;20.76;95.32
70015;BME280;57358;51.094;6.760;2023-07-31T10:56:45;100084.81;;;20.61;93.54
70015;BME280;57358;51.094;6.760;2023-07-31T10:59:13;100064.25;;;20.53;92.06
70015;BME280;57358;51.094;6.760;2023-07-31T11:01:58;100092.63;;;20.97;91.53
70015;BME280;57358;51.094;6.760;2023-07-31T11:04:25;100042.84;;;20.63;89.56
70015;BME280;57358;51.094;6.760;2023-07-31T11:06:58;100066.22;;;20.78;89.73
70015;BME280;57358;51.094;6.760;2023-07-31T11:09:28;100009.06;;;20.97;86.32
70015;BME280;57358;51.094;6.760;2023-07-31T11:11:56;99913.19;;;20.62;86.71
70015;BME280;57358;51.094;6.760;2023-07-31T11:14:23;99993.94;;;21.22;84.96
70015;BME280;57358;51.094;6.760;2023-07-31T11:16:50;100016.81;;;21.57;84.22
70015;BME280;57358;51.094;6.760;2023-07-31T11:19:24;99957.88;;;21.59;81.84
70015;BME280;57358;51.094;6.760;2023-07-31T11:21:52;99961.59;;;21.33;82.27
70015;BME280;57358;51.094;6.760;2023-07-31T11:24:19;99946.88;;;21.21;82.95
70015;BME280;57358;51.094;6.760;2023-07-31T11:26:52;99995.41;;;21.32;83.34
70015;BME280;57358;51.094;6.760;2023-07-31T11:29:19;99993.75;;;21.40;82.39
70015;BME280;57358;51.094;6.760;2023-07-31T11:31:48;99967.41;;;21.61;81.54
70015;BME280;57358;51.094;6.760;2023-07-31T11:34:15;99975.84;;;21.98;81.22
70015;BME280;57358;51.094;6.760;2023-07-31T11:36:53;99981.06;;;22.30;80.08
70015;BME280;57358;51.094;6.760;2023-07-31T11:39:21;99906.13;;;22.47;77.13
70015;BME280;57358;51.094;6.760;2023-07-31T11:41:48;99847.97;;;21.86;76.94
70015;BME280;57358;51.094;6.760;2023-07-31T11:44:14;99878.09;;;21.72;78.17
70015;BME280;57358;51.094;6.760;2023-07-31T11:46:56;99885.19;;;21.88;77.59
70015;BME280;57358;51.094;6.760;2023-07-31T11:49:23;99844.34;;;21.23;79.26
70015;BME280;57358;51.094;6.760;2023-07-31T11:51:49;99822.53;;;20.95;79.57
70015;BME280;57358;51.094;6.760;2023-07-31T11:54:16;99874.84;;;21.12;80.48
70015;BME280;57358;51.094;6.760;2023-07-31T11:56:43;99912.41;;;21.11;80.93
70015;BME280;57358;51.094;6.760;2023-07-31T11:59:10;99889.38;;;20.85;81.60
70015;BME280;57358;51.094;6.760;2023-07-31T12:01:38;99890.72;;;20.65;82.73
70015;BME280;57358;51.094;6.760;2023-07-31T12:04:05;99955.03;;;20.86;83.11
70015;BME280;57358;51.094;6.760;2023-07-31T12:06:35;99917.94;;;20.42;84.26
70015;BME280;57358;51.094;6.760;2023-07-31T12:09:03;99964.84;;;20.61;84.00
70015;BME280;57358;51.094;6.760;2023-07-31T12:11:30;99956.91;;;20.27;86.04
70015;BME280;57358;51.094;6.760;2023-07-31T12:13:57;99992.78;;;20.49;85.43
70015;BME280;57358;51.094;6.760;2023-07-31T12:16:26;99944.97;;;20.56;84.89
70015;BME280;57358;51.094;6.760;2023-07-31T12:18:53;99891.53;;;20.74;81.99
70015;BME280;57358;51.094;6.760;2023-07-31T12:21:19;99924.88;;;21.35;80.34
70015;BME280;57358;51.094;6.760;2023-07-31T12:23:46;99930.53;;;21.40;79.98
70015;BME280;57358;51.094;6.760;2023-07-31T12:26:15;99927.88;;;21.32;80.32
70015;BME280;57358;51.094;6.760;2023-07-31T12:28:48;99850.19;;;20.94;79.69
70015;BME280;57358;51.094;6.760;2023-07-31T12:31:21;99940.06;;;21.10;81.67
70015;BME280;57358;51.094;6.760;2023-07-31T12:33:48;99938.03;;;21.28;80.50
70015;BME280;57358;51.094;6.760;2023-07-31T12:36:25;99926.53;;;21.28;80.36
70015;BME280;57358;51.094;6.760;2023-07-31T12:38:52;99979.44;;;21.57;81.75
70015;BME280;57358;51.094;6.760;2023-07-31T12:41:19;99953.00;;;21.79;79.58
70015;BME280;57358;51.094;6.760;2023-07-31T12:43:46;99922.16;;;21.68;79.40
70015;BME280;57358;51.094;6.760;2023-07-31T12:46:12;99891.66;;;21.38;79.59
70015;BME280;57358;51.094;6.760;2023-07-31T12:48:40;99914.88;;;21.21;81.14